Time;durP1;ratioP1;P1;durP2;ratioP2;P2;SDS_P1;SDS_P2;PMS_P1;PMS_P2;Temp;Humidity;BMP_temperature;BMP_pressure;BME280_temperature;BME280_humidity;BME280_pressure;Samples;Min_cycle;Max_cycle;Signal;HPM_P1;HPM_P2
2022/06/11 00:02:17;;;;;;;11.57;4.80;;;17.50;99.90;;;;;;4976298;28;20478;-80
2022/06/11 00:04:43;;;;;;;9.93;5.10;;;17.30;99.90;;;;;;4975706;28;20130;-79
2022/06/11 00:07:16;;;;;;;10.98;4.88;;;17.40;99.90;;;;;;4974809;28;20046;-83
2022/06/11 00:09:42;;;;;;;19.33;5.60;;;17.30;99.90;;;;;;4976148;28;20381;-80
2022/06/11 00:12:10;;;;;;;16.38;5.22;;;17.30;99.90;;;;;;4992184;28;20038;-78
2022/06/11 00:14:36;;;;;;;11.48;5.00;;;17.20;99.90;;;;;;4976057;28;20084;-79
2022/06/11 00:17:05;;;;;;;11.02;4.90;;;17.20;99.90;;;;;;4991963;28;20042;-80
2022/06/11 00:19:31;;;;;;;8.23;4.85;;;17.10;99.90;;;;;;4976476;28;20057;-81
2022/06/11 00:21:57;;;;;;;9.23;4.70;;;17.00;99.90;;;;;;4975592;28;20050;-79
2022/06/11 00:24:24;;;;;;;11.55;4.95;;;17.00;99.90;;;;;;5007988;28;20042;-78
2022/06/11 00:26:52;;;;;;;11.68;4.90;;;17.00;99.90;;;;;;4988279;28;20100;-82
2022/06/11 00:29:20;;;;;;;12.50;5.03;;;17.00;99.90;;;;;;5010930;28;20050;-79
2022/06/11 00:31:47;;;;;;;10.02;5.05;;;16.80;99.90;;;;;;4994923;28;20041;-79
2022/06/11 00:34:13;;;;;;;17.67;5.25;;;16.90;99.90;;;;;;4995163;28;20038;-82
2022/06/11 00:36:39;;;;;;;11.48;5.50;;;16.80;99.90;;;;;;5010404;28;20050;-82
2022/06/11 00:39:07;;;;;;;12.75;4.95;;;16.80;99.90;;;;;;5011372;28;20378;-79
2022/06/11 00:41:37;;;;;;;13.82;5.20;;;16.70;99.90;;;;;;4995038;28;20089;-81
2022/06/11 00:44:04;;;;;;;16.38;6.20;;;16.70;99.90;;;;;;4994185;28;20092;-80
2022/06/11 00:46:54;;;;;;;14.20;5.90;;;16.50;99.90;;;;;;5011069;28;20485;-77
2022/06/11 00:49:38;;;;;;;10.80;5.68;;;16.50;99.90;;;;;;4994608;28;20101;-80
2022/06/11 00:52:34;;;;;;;13.98;5.55;;;16.40;99.90;;;;;;4994707;28;20038;-80
2022/06/11 00:55:04;;;;;;;13.35;5.35;;;16.30;99.90;;;;;;4994916;28;20109;-80
2022/06/11 00:57:34;;;;;;;17.13;5.35;;;16.30;99.90;;;;;;5010920;28;20164;-82
2022/06/11 01:00:09;;;;;;;18.77;4.97;;;16.20;99.90;;;;;;4994949;28;20107;-81
2022/06/11 01:02:37;;;;;;;14.88;4.65;;;16.10;99.90;;;;;;4995064;28;20037;-81
2022/06/11 01:05:04;;;;;;;15.43;4.75;;;16.10;99.90;;;;;;4994371;28;20327;-79
2022/06/11 01:08:14;;;;;;;19.30;5.18;;;16.00;99.90;;;;;;4994232;28;20128;-81
2022/06/11 01:10:46;;;;;;;13.30;4.80;;;16.00;99.90;;;;;;4994417;28;20120;-81
2022/06/11 01:13:14;;;;;;;11.75;4.30;;;15.90;99.90;;;;;;4994524;28;20052;-79
2022/06/11 01:15:53;;;;;;;15.18;3.88;;;15.90;99.90;;;;;;5010408;28;20563;-81
2022/06/11 01:18:31;;;;;;;13.45;3.63;;;15.80;99.90;;;;;;4994518;28;20515;-79
2022/06/11 01:21:05;;;;;;;10.82;3.55;;;15.80;99.90;;;;;;4994168;28;20536;-83
2022/06/11 01:23:33;;;;;;;14.13;3.90;;;15.70;99.90;;;;;;5010199;28;20489;-80
2022/06/11 01:26:20;;;;;;;14.13;3.70;;;15.70;99.90;;;;;;4990908;28;20054;-80
2022/06/11 01:29:26;;;;;;;14.63;3.55;;;15.70;99.90;;;;;;4974871;28;20493;-78
2022/06/11 01:32:00;;;;;;;12.30;3.40;;;15.70;99.90;;;;;;4990907;28;20535;-80
2022/06/11 01:34:31;;;;;;;15.05;3.13;;;15.60;99.90;;;;;;5006802;28;20082;-80
2022/06/11 01:37:04;;;;;;;14.75;2.95;;;15.60;99.90;;;;;;4974284;28;20045;-77
2022/06/11 01:40:01;;;;;;;17.10;3.20;;;15.60;99.90;;;;;;5007118;28;20589;-81
2022/06/11 01:42:39;;;;;;;13.32;2.97;;;15.60;99.90;;;;;;4955375;28;20053;-80
2022/06/11 01:45:15;;;;;;;11.00;2.90;;;15.60;99.90;;;;;;4971922;28;20041;-76
2022/06/11 01:47:42;;;;;;;15.25;2.78;;;15.50;99.90;;;;;;4973787;28;20038;-78
2022/06/11 01:50:11;;;;;;;11.23;2.83;;;15.50;99.90;;;;;;4972095;28;20130;-79
2022/06/11 01:52:50;;;;;;;16.25;3.35;;;15.40;99.90;;;;;;4954928;28;20122;-83
2022/06/11 01:55:35;;;;;;;11.07;2.88;;;15.40;99.90;;;;;;4987782;28;20047;-78
2022/06/11 01:58:31;;;;;;;17.90;3.10;;;15.30;99.90;;;;;;4994952;28;20045;-80
2022/06/11 02:01:11;;;;;;;13.50;2.78;;;15.30;99.90;;;;;;4978840;28;20046;-82
2022/06/11 02:03:46;;;;;;;14.10;3.00;;;15.20;99.90;;;;;;4978372;28;20038;-81
2022/06/11 02:06:19;;;;;;;14.50;2.95;;;15.10;99.90;;;;;;4977270;28;20046;-82
2022/06/11 02:09:17;;;;;;;12.95;2.90;;;15.10;99.90;;;;;;4978089;28;20045;-78
2022/06/11 02:11:55;;;;;;;10.90;2.55;;;15.10;99.90;;;;;;4970626;28;20050;-81
2022/06/11 02:14:35;;;;;;;10.30;2.30;;;15.10;99.90;;;;;;4994498;28;20049;-79
2022/06/11 02:17:10;;;;;;;12.70;3.17;;;15.00;99.90;;;;;;4994882;28;20054;-79
2022/06/11 02:19:42;;;;;;;17.02;2.53;;;15.00;99.90;;;;;;4977743;28;20489;-80
2022/06/11 02:22:25;;;;;;;15.93;2.65;;;15.00;99.90;;;;;;4977701;28;20042;-81
2022/06/11 02:25:04;;;;;;;11.73;2.53;;;15.00;99.90;;;;;;5010556;28;20050;-80
2022/06/11 02:27:32;;;;;;;13.55;2.20;;;14.90;99.90;;;;;;4979674;28;20201;-80
2022/06/11 02:29:58;;;;;;;17.13;2.88;;;14.90;99.90;;;;;;4996976;28;20405;-78
2022/06/11 02:32:28;;;;;;;14.50;2.40;;;14.90;99.90;;;;;;5013867;28;20053;-80
2022/06/11 02:34:58;;;;;;;19.35;2.83;;;14.90;99.90;;;;;;4997540;28;20358;-80
2022/06/11 02:37:39;;;;;;;15.50;2.75;;;14.80;99.90;;;;;;5013498;28;20125;-80
2022/06/11 02:40:15;;;;;;;18.35;2.83;;;14.80;99.90;;;;;;5013832;28;20037;-80
2022/06/11 02:42:41;;;;;;;12.20;2.65;;;14.80;99.90;;;;;;4997597;28;20080;-81
2022/06/11 02:45:10;;;;;;;11.20;2.58;;;14.70;99.90;;;;;;5014019;28;20400;-82
2022/06/11 02:47:37;;;;;;;12.48;2.88;;;14.70;99.90;;;;;;4997791;28;20113;-77
2022/06/11 02:50:03;;;;;;;16.52;3.08;;;14.60;99.90;;;;;;4996807;28;20137;-79
2022/06/11 02:52:30;;;;;;;10.68;2.30;;;14.60;99.90;;;;;;4980711;28;20494;-79
2022/06/11 02:54:55;;;;;;;11.30;2.53;;;14.60;99.90;;;;;;5013277;28;20103;-79
2022/06/11 02:57:26;;;;;;;15.27;3.35;;;14.60;99.90;;;;;;4997412;28;20053;-81
2022/06/11 02:59:52;;;;;;;13.73;2.95;;;14.50;99.90;;;;;;4997985;28;20104;-83
2022/06/11 03:02:20;;;;;;;17.83;3.17;;;14.60;99.90;;;;;;4998522;28;20489;-80
2022/06/11 03:04:47;;;;;;;11.82;2.90;;;14.50;99.90;;;;;;5015413;28;20052;-80
2022/06/11 03:07:13;;;;;;;12.25;2.85;;;14.60;99.90;;;;;;4994541;28;20048;-83
2022/06/11 03:09:40;;;;;;;14.30;3.10;;;14.50;99.90;;;;;;4978341;28;20042;-79
2022/06/11 03:12:07;;;;;;;15.00;3.20;;;14.50;99.90;;;;;;4977961;28;20041;-78
2022/06/11 03:14:33;;;;;;;17.70;3.10;;;14.40;99.90;;;;;;4979384;28;20161;-79
2022/06/11 03:16:59;;;;;;;12.85;2.90;;;14.40;99.90;;;;;;4980485;28;20077;-79
2022/06/11 03:19:25;;;;;;;15.95;2.95;;;14.40;99.90;;;;;;4993854;28;20466;-81
2022/06/11 03:21:56;;;;;;;13.98;2.72;;;14.40;99.90;;;;;;4976771;28;20145;-78
2022/06/11 03:24:27;;;;;;;16.40;3.33;;;14.40;99.90;;;;;;4993588;28;20042;-82
2022/06/11 03:26:54;;;;;;;14.48;3.10;;;14.40;99.90;;;;;;4977122;28;20494;-82
2022/06/11 03:29:22;;;;;;;14.32;3.10;;;14.40;99.90;;;;;;4993454;28;20046;-79
2022/06/11 03:31:49;;;;;;;18.55;3.22;;;14.30;99.90;;;;;;4993368;28;20051;-79
2022/06/11 03:34:15;;;;;;;14.73;2.92;;;14.40;99.90;;;;;;4977725;28;20468;-79
2022/06/11 03:36:42;;;;;;;17.98;3.50;;;14.30;99.90;;;;;;4992771;28;20441;-80
2022/06/11 03:39:09;;;;;;;16.02;3.38;;;14.30;99.90;;;;;;4977059;28;20042;-82
2022/06/11 03:41:34;;;;;;;9.55;2.78;;;14.40;99.90;;;;;;4976808;28;20042;-78
2022/06/11 03:44:00;;;;;;;19.10;3.72;;;14.40;99.90;;;;;;5028346;28;20050;-80
2022/06/11 03:46:28;;;;;;;17.45;3.28;;;14.50;99.90;;;;;;4996163;28;20125;-79
2022/06/11 03:48:54;;;;;;;15.90;3.70;;;14.40;99.90;;;;;;4979830;28;20073;-79
2022/06/11 03:51:19;;;;;;;21.23;3.17;;;14.40;99.90;;;;;;4995174;28;20076;-78
2022/06/11 03:53:46;;;;;;;12.60;3.17;;;14.50;99.90;;;;;;4996130;28;20042;-78
2022/06/11 03:56:15;;;;;;;19.13;3.42;;;14.50;99.90;;;;;;5026597;28;20056;-79
2022/06/11 03:58:45;;;;;;;14.48;3.13;;;14.50;99.90;;;;;;4996077;28;20103;-81
2022/06/11 04:01:14;;;;;;;13.57;3.22;;;14.50;99.90;;;;;;5012766;28;20046;-76
2022/06/11 04:03:46;;;;;;;16.25;3.70;;;14.60;99.90;;;;;;5012705;28;20077;-79
2022/06/11 04:06:13;;;;;;;13.90;3.60;;;14.60;99.90;;;;;;4998143;28;20053;-79
2022/06/11 04:08:40;;;;;;;9.88;3.40;;;14.70;99.90;;;;;;4998073;28;20084;-80
2022/06/11 04:11:06;;;;;;;13.40;3.40;;;14.80;99.90;;;;;;4995603;28;20042;-77
2022/06/11 04:13:34;;;;;;;16.90;4.10;;;14.70;99.90;;;;;;4995701;28;20485;-80
2022/06/11 04:16:01;;;;;;;15.55;3.80;;;14.70;99.90;;;;;;5011753;28;20050;-80
2022/06/11 04:18:36;;;;;;;19.08;4.03;;;14.80;99.90;;;;;;5011931;28;20334;-80
2022/06/11 04:21:03;;;;;;;;;;;14.90;99.90;;;;;;5012283;28;20401;-82
2022/06/11 04:23:30;;;;;;;22.00;4.18;;;14.90;99.90;;;;;;5011449;28;19917;-80
2022/06/11 04:26:02;;;;;;;14.02;3.50;;;15.10;99.90;;;;;;4995402;28;20528;-79
2022/06/11 04:28:29;;;;;;;16.42;4.00;;;15.30;99.90;;;;;;4995766;28;20038;-81
2022/06/11 04:30:56;;;;;;;15.38;3.50;;;15.40;99.90;;;;;;4995594;28;20080;-78
2022/06/11 04:33:22;;;;;;;18.40;3.92;;;15.60;99.90;;;;;;4995674;28;20046;-80
2022/06/11 04:35:48;;;;;;;17.25;3.65;;;16.10;99.90;;;;;;5011645;28;20040;-83
2022/06/11 04:38:15;;;;;;;14.00;3.50;;;16.70;99.90;;;;;;4993865;28;20097;-80
2022/06/11 04:40:41;;;;;;;16.15;3.33;;;17.00;99.90;;;;;;4979731;28;20045;-81
2022/06/11 04:43:07;;;;;;;17.75;3.92;;;17.40;99.90;;;;;;5013746;28;20156;-78
2022/06/11 04:45:33;;;;;;;14.90;3.28;;;17.60;99.90;;;;;;5013154;28;20392;-78
2022/06/11 04:47:59;;;;;;;26.02;3.97;;;17.70;99.90;;;;;;5012151;28;20041;-83
2022/06/11 04:50:25;;;;;;;15.43;3.55;;;17.80;99.90;;;;;;4995432;28;20393;-78
2022/06/11 04:52:50;;;;;;;22.58;3.88;;;18.00;99.90;;;;;;4994895;28;20045;-80
2022/06/11 04:55:16;;;;;;;20.27;3.88;;;18.10;99.90;;;;;;5012195;28;20045;-83
2022/06/11 04:57:43;;;;;;;19.17;3.65;;;18.10;99.90;;;;;;5011057;28;20049;-80
2022/06/11 05:00:14;;;;;;;18.25;3.45;;;17.70;99.90;;;;;;4994968;28;20064;-81
2022/06/11 05:02:40;;;;;;;21.35;4.25;;;17.10;99.90;;;;;;4994836;28;20334;-80
2022/06/11 05:05:07;;;;;;;20.77;3.78;;;16.70;99.90;;;;;;5011026;28;20042;-78
2022/06/11 05:07:34;;;;;;;19.70;3.85;;;16.60;99.90;;;;;;4991021;28;20043;-81
2022/06/11 05:10:00;;;;;;;24.45;4.22;;;16.40;99.90;;;;;;4975897;28;20330;-80
2022/06/11 05:12:25;;;;;;;22.00;4.22;;;16.30;99.90;;;;;;4993257;28;20121;-81
2022/06/11 05:14:51;;;;;;;25.55;4.32;;;16.10;99.90;;;;;;4975230;28;20108;-80
2022/06/11 05:17:18;;;;;;;22.88;3.83;;;16.30;99.90;;;;;;4991284;28;20061;-81
2022/06/11 05:19:44;;;;;;;18.75;4.60;;;16.20;99.90;;;;;;4991134;28;20138;-82
2022/06/11 05:22:10;;;;;;;22.20;4.05;;;16.20;99.90;;;;;;4974675;28;20189;-77
2022/06/11 05:24:35;;;;;;;22.40;4.60;;;16.20;99.90;;;;;;4975235;28;20046;-81
2022/06/11 05:27:07;;;;;;;22.23;4.05;;;16.30;99.90;;;;;;4992442;28;20141;-80
2022/06/11 05:29:44;;;;;;;23.05;4.45;;;16.30;99.90;;;;;;4991741;28;20042;-82
2022/06/11 05:32:10;;;;;;;24.77;4.57;;;16.30;99.90;;;;;;4984482;28;20064;-83
2022/06/11 05:34:36;;;;;;;22.33;4.13;;;16.30;99.90;;;;;;5010360;28;20061;-82
2022/06/11 05:37:03;;;;;;;31.70;4.85;;;16.40;99.90;;;;;;4993706;28;20048;-83
2022/06/11 05:39:29;;;;;;;24.45;5.07;;;16.50;99.90;;;;;;4993950;28;20038;-79
2022/06/11 05:41:55;;;;;;;27.98;5.05;;;16.50;99.90;;;;;;4994415;28;20042;-81
2022/06/11 05:44:22;;;;;;;29.38;4.70;;;16.60;99.90;;;;;;5010841;28;20056;-81
2022/06/11 05:46:48;;;;;;;26.10;4.68;;;16.50;99.90;;;;;;5010810;28;20029;-81
2022/06/11 05:49:20;;;;;;;22.90;4.50;;;16.50;99.90;;;;;;4994049;28;20036;-79
2022/06/11 05:51:49;;;;;;;22.90;4.60;;;16.60;99.90;;;;;;5009966;28;20074;-81
2022/06/11 05:54:30;;;;;;;24.67;4.43;;;16.70;99.90;;;;;;5010664;28;20120;-79
2022/06/11 05:56:56;;;;;;;30.60;5.18;;;16.70;99.90;;;;;;4994672;28;20049;-82
2022/06/11 05:59:29;;;;;;;29.27;5.38;;;16.70;99.90;;;;;;4994148;28;20057;-81
2022/06/11 06:01:56;;;;;;;28.60;5.40;;;16.70;99.90;;;;;;4994484;28;20045;-79
2022/06/11 06:04:22;;;;;;;19.77;4.55;;;16.80;99.90;;;;;;4993797;28;20121;-80
2022/06/11 06:06:47;;;;;;;27.48;5.38;;;16.80;99.90;;;;;;5010573;28;20038;-83
2022/06/11 06:09:13;;;;;;;26.77;5.07;;;16.90;99.90;;;;;;4994332;28;20403;-81
2022/06/11 06:11:39;;;;;;;24.65;5.43;;;16.90;99.90;;;;;;5012346;28;20038;-77
2022/06/11 06:14:05;;;;;;;28.83;5.03;;;16.80;99.90;;;;;;4996346;28;20041;-77
2022/06/11 06:16:31;;;;;;;29.80;4.93;;;16.90;99.90;;;;;;4994551;28;20050;-81
2022/06/11 06:19:01;;;;;;;31.75;6.13;;;17.00;99.90;;;;;;4993979;28;20042;-80
2022/06/11 06:21:30;;;;;;;28.38;5.53;;;17.00;99.90;;;;;;5009775;28;20166;-80
2022/06/11 06:23:56;;;;;;;32.60;5.80;;;17.00;99.90;;;;;;4994310;28;20037;-78
2022/06/11 06:26:22;;;;;;;25.83;5.28;;;17.00;99.90;;;;;;4990347;28;20592;-81
2022/06/11 06:28:48;;;;;;;33.40;6.05;;;17.20;99.90;;;;;;4974503;28;20367;-82
2022/06/11 06:31:15;;;;;;;31.25;5.75;;;17.20;99.90;;;;;;4974267;28;20042;-79
2022/06/11 06:33:46;;;;;;;31.48;5.25;;;17.20;99.90;;;;;;4990812;28;20125;-82
2022/06/11 06:36:15;;;;;;;33.72;6.00;;;17.30;99.90;;;;;;4974318;28;20480;-78
2022/06/11 06:38:42;;;;;;;33.35;5.75;;;17.20;99.90;;;;;;4991986;28;20393;-79
2022/06/11 06:41:13;;;;;;;37.10;6.85;;;17.20;99.90;;;;;;4991303;28;20128;-83
2022/06/11 06:43:39;;;;;;;31.83;6.00;;;17.30;99.90;;;;;;4995828;28;20396;-79
2022/06/11 06:46:05;;;;;;;31.67;6.00;;;17.40;99.90;;;;;;4978403;28;20120;-84
2022/06/11 06:48:31;;;;;;;30.80;6.35;;;17.40;99.90;;;;;;4996278;28;20042;-79
2022/06/11 06:50:58;;;;;;;31.42;6.25;;;17.50;99.90;;;;;;4977790;28;20439;-80
2022/06/11 06:53:25;;;;;;;34.20;5.68;;;17.60;99.90;;;;;;4985652;28;20037;-77
2022/06/11 06:55:52;;;;;;;29.05;5.63;;;17.60;99.90;;;;;;5018258;28;20041;-78
2022/06/11 06:58:18;;;;;;;35.38;6.47;;;17.70;99.90;;;;;;5001559;28;20046;-80
2022/06/11 07:00:44;;;;;;;31.65;6.57;;;17.80;99.90;;;;;;5018210;28;20038;-79
2022/06/11 07:03:13;;;;;;;31.25;5.78;;;17.80;99.90;;;;;;5017972;28;20045;-79
2022/06/11 07:05:40;;;;;;;35.30;6.65;;;17.80;99.90;;;;;;5017133;28;20099;-79
2022/06/11 07:08:06;;;;;;;33.78;6.18;;;17.70;99.90;;;;;;5017095;28;20050;-80
2022/06/11 07:10:33;;;;;;;32.42;6.35;;;17.90;99.90;;;;;;5020277;28;20481;-79
2022/06/11 07:13:02;;;;;;;29.23;5.70;;;17.90;99.90;;;;;;4993870;28;20046;-79
2022/06/11 07:15:29;;;;;;;29.67;5.65;;;17.90;99.90;;;;;;4995057;28;20042;-80
2022/06/11 07:18:04;;;;;;;31.08;5.82;;;17.80;99.90;;;;;;4994161;28;20127;-82
2022/06/11 07:20:31;;;;;;;;;;;18.00;99.90;;;;;;4961955;28;20046;-79
2022/06/11 07:23:18;;;;;;;36.00;6.47;;;18.10;99.90;;;;;;4961242;28;19924;-83
2022/06/11 07:25:47;;;;;;;31.70;6.50;;;18.20;99.90;;;;;;4996471;28;20054;-80
2022/06/11 07:28:18;;;;;;;30.58;6.10;;;18.40;99.90;;;;;;5013323;28;20141;-81
2022/06/11 07:30:45;;;;;;;33.05;5.75;;;18.40;99.90;;;;;;5013411;28;20100;-78
2022/06/11 07:33:19;;;;;;;31.33;6.40;;;18.40;99.90;;;;;;5013075;28;20042;-81
2022/06/11 07:35:48;;;;;;;34.08;6.47;;;18.40;99.90;;;;;;4996570;28;20049;-81
2022/06/11 07:38:14;;;;;;;28.83;5.90;;;18.50;99.90;;;;;;4996415;28;20053;-83
2022/06/11 07:40:41;;;;;;;33.83;5.60;;;18.50;99.90;;;;;;5014085;28;20481;-77
2022/06/11 07:43:07;;;;;;;27.52;5.57;;;18.50;99.90;;;;;;4998935;28;20485;-79
2022/06/11 07:45:35;;;;;;;32.05;5.45;;;18.70;99.90;;;;;;5014542;28;20484;-80
2022/06/11 07:48:01;;;;;;;28.85;5.82;;;18.70;99.90;;;;;;5012809;28;20037;-80
2022/06/11 07:50:32;;;;;;;33.28;5.22;;;18.70;99.90;;;;;;5013932;28;20033;-80
2022/06/11 07:52:59;;;;;;;32.45;5.63;;;18.80;99.90;;;;;;5012134;28;20061;-81
2022/06/11 07:55:25;;;;;;;23.85;5.40;;;19.00;99.90;;;;;;4995707;28;20503;-77
2022/06/11 07:57:51;;;;;;;27.75;5.18;;;18.90;99.90;;;;;;4997573;28;20056;-79
2022/06/11 08:00:21;;;;;;;32.55;5.93;;;18.90;99.90;;;;;;4995921;28;20159;-81
2022/06/11 08:02:47;;;;;;;33.03;5.57;;;19.00;99.90;;;;;;4996229;28;20403;-79
2022/06/11 08:05:13;;;;;;;33.63;5.07;;;19.00;99.90;;;;;;4995827;28;20100;-80
2022/06/11 08:07:57;;;;;;;24.05;4.95;;;19.10;99.90;;;;;;4995566;28;20243;-82
2022/06/11 08:10:25;;;;;;;32.22;6.80;;;19.40;99.90;;;;;;4979942;28;20559;-78
2022/06/11 08:12:51;;;;;;;23.45;4.97;;;19.30;99.90;;;;;;4979885;28;20128;-80
2022/06/11 08:15:17;;;;;;;28.73;5.10;;;19.30;99.90;;;;;;5012421;28;20469;-83
2022/06/11 08:17:43;;;;;;;25.42;4.85;;;19.30;99.90;;;;;;4995970;28;20091;-81
2022/06/11 08:20:13;;;;;;;28.95;5.28;;;19.30;99.90;;;;;;4995112;28;20046;-82
2022/06/11 08:22:39;;;;;;;27.38;5.18;;;19.10;99.90;;;;;;5011321;28;20120;-81
2022/06/11 08:25:05;;;;;;;25.95;5.35;;;19.50;99.90;;;;;;4995385;28;20279;-77
2022/06/11 08:27:31;;;;;;;23.77;5.15;;;19.30;99.90;;;;;;4995474;28;20085;-78
2022/06/11 08:29:57;;;;;;;24.65;5.15;;;19.30;99.90;;;;;;5011831;28;20081;-80
2022/06/11 08:32:23;;;;;;;24.17;5.05;;;19.40;99.90;;;;;;4995716;28;20143;-81
2022/06/11 08:34:51;;;;;;;35.03;6.22;;;19.40;99.90;;;;;;4995208;28;20478;-79
2022/06/11 08:37:36;;;;;;;27.48;5.90;;;19.50;99.90;;;;;;5011301;28;20048;-80
2022/06/11 08:40:04;;;;;;;;;;;19.40;99.90;;;;;;5012345;28;20379;-82
2022/06/11 08:42:41;;;;;;;24.08;4.90;;;19.40;99.90;;;;;;4994773;28;20426;-81
2022/06/11 08:45:19;;;;;;;21.17;4.78;;;19.30;99.90;;;;;;5011211;28;20038;-80
2022/06/11 08:47:54;;;;;;;24.38;5.35;;;19.40;99.90;;;;;;5011102;28;20053;-79
2022/06/11 08:50:35;;;;;;;26.77;5.40;;;19.50;99.90;;;;;;5010730;28;20132;-80
2022/06/11 08:53:03;;;;;;;27.58;5.60;;;19.70;99.90;;;;;;4994776;28;20056;-81
2022/06/11 08:55:36;;;;;;;23.77;4.45;;;19.80;99.90;;;;;;5011157;28;20133;-78
2022/06/11 08:58:21;;;;;;;31.40;4.93;;;19.80;99.90;;;;;;5011279;28;20147;-80
2022/06/11 09:01:17;;;;;;;21.95;4.90;;;19.80;99.90;;;;;;5010852;28;20053;-79
2022/06/11 09:04:06;;;;;;;23.33;4.93;;;19.90;99.90;;;;;;5010885;28;20034;-80
2022/06/11 09:06:54;;;;;;;22.65;4.72;;;19.90;99.90;;;;;;4993288;28;20180;-79
2022/06/11 09:09:44;;;;;;;27.08;5.53;;;20.10;99.90;;;;;;4996012;28;20080;-79
2022/06/11 09:12:12;;;;;;;25.70;4.75;;;20.20;99.90;;;;;;4959166;28;20054;-78
2022/06/11 09:15:06;;;;;;;24.85;4.60;;;20.40;99.90;;;;;;4956045;28;20047;-82
2022/06/11 09:17:54;;;;;;;24.13;4.38;;;20.30;99.90;;;;;;4954633;28;20057;-80
2022/06/11 09:20:41;;;;;;;25.92;4.55;;;20.30;99.90;;;;;;4954321;28;20559;-80
2022/06/11 09:23:30;;;;;;;23.48;3.92;;;20.30;99.90;;;;;;4954303;28;20062;-79
2022/06/11 09:26:11;;;;;;;20.50;4.15;;;20.40;99.90;;;;;;4953876;28;20082;-80
2022/06/11 09:29:11;;;;;;;19.83;4.13;;;20.50;99.90;;;;;;4954422;28;20047;-78
2022/06/11 09:31:50;;;;;;;20.77;3.85;;;20.80;99.90;;;;;;4932183;29;20058;-79
2022/06/11 09:34:35;;;;;;;23.08;3.92;;;20.90;99.90;;;;;;4915851;29;20043;-79
2022/06/11 09:37:44;;;;;;;18.17;3.97;;;21.20;99.90;;;;;;4916270;29;20456;-78
2022/06/11 09:40:47;;;;;;;21.35;4.07;;;21.10;99.90;;;;;;4878951;29;20057;-80
2022/06/11 09:43:41;;;;;;;24.30;3.97;;;21.10;99.90;;;;;;4893909;29;20075;-83
2022/06/11 09:46:46;;;;;;;22.25;3.80;;;20.90;99.90;;;;;;4878491;29;20048;-78
2022/06/11 09:49:43;;;;;;;16.10;3.23;;;20.90;99.90;;;;;;4853685;29;20088;-80
2022/06/11 09:52:24;;;;;;;14.70;3.58;;;21.10;99.90;;;;;;4875225;29;20056;-77
2022/06/11 09:55:01;;;;;;;15.52;2.80;;;20.60;99.90;;;;;;4875530;29;20381;-82
2022/06/11 09:57:50;;;;;;;17.75;3.05;;;20.60;99.90;;;;;;4860051;29;20049;-78
2022/06/11 10:00:31;;;;;;;14.85;2.80;;;20.70;99.90;;;;;;4875552;29;20429;-79
2022/06/11 10:03:31;;;;;;;16.27;3.60;;;20.80;99.90;;;;;;4860025;29;20045;-80
2022/06/11 10:06:07;;;;;;;17.45;3.65;;;20.90;99.90;;;;;;4859402;29;20056;-81
2022/06/11 10:09:01;;;;;;;18.90;3.45;;;20.60;99.90;;;;;;4903523;29;20052;-82
2022/06/11 10:11:49;;;;;;;18.73;3.30;;;20.60;99.90;;;;;;4928888;29;20044;-80
2022/06/11 10:14:28;;;;;;;17.58;3.35;;;20.80;99.90;;;;;;4958700;28;20127;-82
2022/06/11 10:17:18;;;;;;;23.75;4.32;;;20.60;99.90;;;;;;4991258;28;20049;-83
2022/06/11 10:19:56;;;;;;;16.90;2.80;;;20.50;99.90;;;;;;4994040;28;20046;-79
2022/06/11 10:22:34;;;;;;;18.70;3.53;;;20.60;99.90;;;;;;5009504;28;20133;-81
2022/06/11 10:25:10;;;;;;;22.13;3.95;;;20.70;99.90;;;;;;4994146;28;20544;-80
2022/06/11 10:27:42;;;;;;;17.27;3.20;;;20.70;99.90;;;;;;5029268;28;20050;-81
2022/06/11 10:30:33;;;;;;;20.25;3.78;;;20.70;99.90;;;;;;4981378;28;20129;-80
2022/06/11 10:33:03;;;;;;;13.90;3.13;;;20.90;99.90;;;;;;5030242;28;20088;-80
2022/06/11 10:35:41;;;;;;;17.35;3.13;;;21.10;99.90;;;;;;4997393;28;20081;-82
2022/06/11 10:38:21;;;;;;;21.30;3.90;;;21.40;99.90;;;;;;4999109;28;20076;-80
2022/06/11 10:40:51;;;;;;;20.52;3.78;;;21.60;99.90;;;;;;5018262;28;20042;-80
2022/06/11 10:43:25;;;;;;;21.73;3.90;;;21.60;99.90;;;;;;4998586;28;20049;-81
2022/06/11 10:45:51;;;;;;;18.75;4.15;;;22.00;99.90;;;;;;5013350;28;20041;-80
2022/06/11 10:48:19;;;;;;;12.63;2.90;;;22.40;99.90;;;;;;4996887;28;20092;-80
2022/06/11 10:50:47;;;;;;;18.45;3.50;;;22.50;99.90;;;;;;4996537;28;20492;-82
2022/06/11 10:53:18;;;;;;;16.10;3.20;;;22.60;99.90;;;;;;5013189;28;20374;-81
2022/06/11 10:56:10;;;;;;;17.27;3.10;;;22.90;99.90;;;;;;4996837;28;20042;-80
2022/06/11 10:58:38;;;;;;;12.48;2.92;;;22.80;99.90;;;;;;4996987;28;20045;-82
2022/06/11 11:01:26;;;;;;;20.27;3.70;;;22.90;99.90;;;;;;4996930;28;20046;-81
2022/06/11 11:03:58;;;;;;;15.13;3.25;;;22.90;99.90;;;;;;4997273;28;20108;-83
2022/06/11 11:06:44;;;;;;;15.43;3.47;;;22.50;99.90;;;;;;4992640;28;20050;-83
2022/06/11 11:09:21;;;;;;;18.70;3.45;;;22.30;99.90;;;;;;4993546;28;20077;-82
2022/06/11 11:11:50;;;;;;;16.33;3.20;;;22.40;99.90;;;;;;4993734;28;20540;-79
2022/06/11 11:14:41;;;;;;;20.05;3.90;;;22.50;99.90;;;;;;4977084;28;20045;-80
2022/06/11 11:17:22;;;;;;;19.15;3.70;;;22.10;99.90;;;;;;4977009;28;20501;-80
2022/06/11 11:22:41;;;;;;;23.30;3.97;;;22.10;99.90;;;;;;4992815;28;20057;-80
2022/06/11 11:25:19;;;;;;;16.77;3.58;;;22.20;99.90;;;;;;4976899;28;20042;-83
2022/06/11 11:27:47;;;;;;;12.52;2.88;;;22.60;99.90;;;;;;4974020;28;20066;-79
2022/06/11 11:30:39;;;;;;;16.55;3.70;;;22.90;99.90;;;;;;4975977;28;20173;-81
2022/06/11 11:33:25;;;;;;;15.20;3.50;;;23.30;99.90;;;;;;4952812;28;20051;-82
2022/06/11 11:36:10;;;;;;;17.50;3.30;;;23.50;99.90;;;;;;4956100;28;20082;-84
2022/06/11 11:38:36;;;;;;;;;;;23.70;99.90;;;;;;4956953;28;20051;-81
2022/06/11 11:41:03;;;;;;;14.55;3.08;;;23.50;99.60;;;;;;4940475;28;19922;-80
2022/06/11 11:43:40;;;;;;;16.00;3.42;;;23.00;99.90;;;;;;4956470;28;20089;-83
2022/06/11 11:46:12;;;;;;;12.82;3.30;;;22.80;99.90;;;;;;4956194;28;20039;-84
2022/06/11 11:48:52;;;;;;;15.00;3.30;;;23.00;99.90;;;;;;4940602;28;20041;-82
2022/06/11 11:51:20;;;;;;;18.70;3.20;;;22.60;99.80;;;;;;4954408;28;20054;-82
2022/06/11 11:53:49;;;;;;;17.13;3.95;;;22.70;99.90;;;;;;4956016;28;20042;-83
2022/06/11 11:56:33;;;;;;;13.63;3.17;;;23.20;99.90;;;;;;4956007;28;20085;-82
2022/06/11 11:59:14;;;;;;;13.13;2.95;;;23.70;99.90;;;;;;4956216;28;20050;-84
2022/06/11 12:01:40;;;;;;;15.55;3.15;;;23.80;99.90;;;;;;4955909;28;20047;-83
2022/06/11 12:04:17;;;;;;;14.40;3.20;;;24.20;99.10;;;;;;4956047;28;20059;-83
2022/06/11 12:06:58;;;;;;;16.55;3.53;;;24.20;99.30;;;;;;4958570;28;20035;-81
2022/06/11 12:13:26;;;;;;;14.55;2.70;;;24.00;96.60;;;;;;4993497;28;20033;-85
2022/06/11 12:16:00;;;;;;;13.23;2.88;;;23.60;97.20;;;;;;4992434;28;20042;-81
2022/06/11 12:18:46;;;;;;;11.90;3.22;;;23.50;98.30;;;;;;4992300;28;20030;-80
2022/06/11 12:21:17;;;;;;;8.75;2.45;;;23.40;97.80;;;;;;4991068;28;20516;-80
2022/06/11 12:23:54;;;;;;;10.07;2.63;;;23.40;97.40;;;;;;4991781;28;20045;-81
2022/06/11 12:26:27;;;;;;;9.95;2.55;;;23.90;97.60;;;;;;4991532;28;20124;-80
2022/06/11 12:29:05;;;;;;;11.32;2.75;;;23.90;97.60;;;;;;4975603;28;20046;-83
2022/06/11 12:31:32;;;;;;;14.60;2.85;;;23.60;96.60;;;;;;4992155;28;20041;-82
2022/06/11 12:33:59;;;;;;;16.00;2.65;;;24.10;97.40;;;;;;4991984;28;20046;-80
2022/06/11 12:36:57;;;;;;;14.18;2.53;;;24.00;97.40;;;;;;4991106;28;20383;-83
2022/06/11 12:40:04;;;;;;;11.05;2.97;;;24.20;96.60;;;;;;4992592;28;20109;-83
2022/06/11 12:43:13;;;;;;;13.20;2.75;;;23.80;96.00;;;;;;4999673;28;20034;-79
2022/06/11 12:46:06;;;;;;;9.57;2.70;;;23.90;95.80;;;;;;4994845;28;20056;-81
2022/06/11 12:48:49;;;;;;;8.68;2.33;;;23.60;96.20;;;;;;5011286;28;20042;-79
2022/06/11 12:51:24;;;;;;;15.73;3.13;;;24.00;96.60;;;;;;4993809;28;20118;-83
2022/06/11 12:54:00;;;;;;;13.23;3.05;;;23.80;97.10;;;;;;4994612;28;20042;-83
2022/06/11 12:56:49;;;;;;;11.07;2.33;;;24.10;96.10;;;;;;4994590;28;20461;-81
2022/06/11 12:59:30;;;;;;;8.30;2.72;;;24.10;96.20;;;;;;5010721;28;20049;-80
2022/06/11 13:02:01;;;;;;;9.07;2.58;;;24.50;95.70;;;;;;4994466;28;20048;-83
2022/06/11 13:05:00;;;;;;;10.30;2.58;;;24.70;96.40;;;;;;4993904;28;20057;-81
2022/06/11 13:07:59;;;;;;;11.40;2.78;;;24.70;95.50;;;;;;4993954;28;20461;-80
2022/06/11 13:10:39;;;;;;;11.02;2.70;;;25.10;95.10;;;;;;4994501;28;20053;-83
2022/06/11 13:13:54;;;;;;;14.15;2.92;;;24.50;95.90;;;;;;4994285;28;20049;-85
2022/06/11 13:16:32;;;;;;;10.25;2.95;;;24.40;95.90;;;;;;4985858;28;20440;-83
2022/06/11 13:18:57;;;;;;;11.32;2.90;;;24.40;95.60;;;;;;4994353;28;20048;-80